Flight Track Log - Related Links

Times and Time Zones

All times are in EDT time to prevent confusion due to time zone crossing. See the JIA2476 flight status page for this flight to view local times or setup timezone preferences in your user account.

Time Position Orientation Groundspeed Altitude Reporting Facility
EDT Latitude Longitude Course Direction KTS MPH feet Rate Location/Type
Sat 02:50:50 PM 35.1950 -80.9356 106° East 148 170 1,700  Level Atlanta Center
Sat 02:51:27 PM 35.1719 -80.9339 177° South 154 177 2,800 2,082 Climbing Atlanta Center
Sat 02:52:28 PM 35.1125 -80.8878 148° Southeast 270 311 5,100 2,459 Climbing Atlanta Center
Sat 02:53:00 PM 35.1000 -80.6332 106° East  Level FlightAware Approximate
Sat 02:53:29 PM 35.0933 -80.7997 105° East 311 358 7,800  Level Atlanta Center
Sat 02:54:00 PM 35.0703 -80.5095 106° East  Level FlightAware Approximate
Sat 02:54:42 PM 35.1089 -80.6747 81° East 306 352 9,800  Level Atlanta Center
Sat 02:55:00 PM 35.0406 -80.3859 106° East  Level FlightAware Approximate
Sat 02:55:31 PM 35.0936 -80.5814 101° East 354 407 11,000  Level Atlanta Center
Sat 02:56:00 PM 35.0107 -80.2624 106° East  Level FlightAware Approximate
Sat 02:56:32 PM 35.0631 -80.4583 107° East 384 442 11,000  Level Atlanta Center
Sat 02:58:08 PM 35.0169 -80.2711 107° East 411 473 11,000  Level Washington Center
Sat 02:59:08 PM 34.9883 -80.1503 106° East 371 427 11,000 50 Level Washington Center
Sat 03:00:09 PM 34.9572 -80.0319 108° East 371 427 11,100 50 Climbing Washington Center
Sat 03:01:09 PM 34.9367 -79.9092 102° East 366 421 11,100  Level Washington Center
Sat 03:02:07 PM 34.9411 -79.7853 87° East 366 421 11,100 -202 Level Washington Center
Sat 03:03:08 PM 34.9472 -79.6717 86° East 352 405 10,700 -984 Descending Washington Center
Sat 03:04:09 PM 34.9528 -79.5653 86° East 323 372 9,100 -1,815 Descending Washington Center
Sat 03:05:07 PM 34.9583 -79.4642 86° East 304 350 7,100 -1,729 Descending Washington Center
Sat 03:06:07 PM 34.9636 -79.3656 86° East 299 344 5,700 -992 Descending Washington Center
Sat 03:07:08 PM 34.9667 -79.2694 88° East 294 338 5,100 -347 Descending Washington Center
Sat 03:08:08 PM 34.9717 -79.1683 87° East 287 330 5,000 -450 Descending Washington Center
Sat 03:09:08 PM 34.9764 -79.0772 86° East 287 330 4,200 -1,041 Descending Washington Center
Sat 03:10:09 PM 35.0078 -79.0050 62° Northeast 259 298 2,900 -1,240 Descending Washington Center
Sat 03:11:09 PM 35.0389 -78.9353 61° Northeast 225 259 1,700 -1,200 Descending Washington Center

Login

Don't have an account? Register now (free) for customized features, flight alerts, and more!